createdAt,value
2018-04-01T00:00:40.325Z,6.50
2018-04-01T00:03:08.697Z,6.60
2018-04-01T00:05:36.413Z,6.60
2018-04-01T00:08:05.417Z,6.60
2018-04-01T00:10:33.885Z,6.60
2018-04-01T00:13:04.713Z,6.60
2018-04-01T00:15:32.901Z,6.60
2018-04-01T00:18:00.883Z,6.60
2018-04-01T00:20:29.706Z,6.60
2018-04-01T00:22:57.417Z,6.50
2018-04-01T00:25:25.141Z,6.50
2018-04-01T00:27:53.030Z,6.50
2018-04-01T00:30:20.709Z,6.40
2018-04-01T00:32:48.423Z,6.40
2018-04-01T00:35:16.145Z,6.40
2018-04-01T00:37:44.337Z,6.30
2018-04-01T00:40:12.801Z,6.30
2018-04-01T00:42:40.523Z,6.30
2018-04-01T00:45:08.246Z,6.30
2018-04-01T00:47:37.334Z,6.30
2018-04-01T00:50:05.810Z,6.30
2018-04-01T00:52:34.497Z,6.30
2018-04-01T00:55:02.553Z,6.30
2018-04-01T00:57:30.789Z,6.30
2018-04-01T00:59:58.814Z,6.30
2018-04-01T01:02:39.863Z,6.30
2018-04-01T01:05:07.562Z,6.30
2018-04-01T01:07:36.358Z,6.30
2018-04-01T01:10:04.834Z,6.20
2018-04-01T01:12:33.304Z,6.30
2018-04-01T01:15:01.027Z,6.20
2018-04-01T01:17:28.725Z,6.30
2018-04-01T01:19:56.838Z,6.20
2018-04-01T01:22:24.898Z,6.20
2018-04-01T01:24:52.613Z,6.20
2018-04-01T01:27:20.322Z,6.20
2018-04-01T01:29:49.519Z,6.10
2018-04-01T01:32:17.229Z,6.10
2018-04-01T01:34:44.930Z,6.20
2018-04-01T01:37:13.629Z,6.10
2018-04-01T01:39:42.106Z,6.10
2018-04-01T01:42:10.624Z,6.10
2018-04-01T01:44:38.772Z,6.10
2018-04-01T01:47:06.481Z,6.10
2018-04-01T01:49:34.182Z,6.00
2018-04-01T01:52:01.905Z,6.00
2018-04-01T01:54:29.621Z,6.00
2018-04-01T01:56:57.717Z,6.00
2018-04-01T01:59:25.821Z,5.90
2018-04-01T02:01:54.285Z,5.80
2018-04-01T02:04:22.752Z,5.90
2018-04-01T02:06:51.234Z,5.80
2018-04-01T02:09:18.942Z,5.80
2018-04-01T02:11:46.998Z,5.80
2018-04-01T02:14:14.942Z,5.70
2018-04-01T02:16:42.650Z,5.60
2018-04-01T02:19:10.626Z,5.60
2018-04-01T02:21:38.829Z,5.70
2018-04-01T02:24:07.313Z,5.70
2018-04-01T02:26:35.009Z,5.70
2018-04-01T02:29:02.972Z,5.70
2018-04-01T02:31:31.236Z,5.70
2018-04-01T02:33:59.214Z,5.70
2018-04-01T02:36:27.206Z,5.70
2018-04-01T02:38:54.920Z,5.70
2018-04-01T02:41:23.730Z,5.70
2018-04-01T02:43:52.216Z,5.70
2018-04-01T02:46:20.700Z,5.70
2018-04-01T02:48:49.180Z,5.70
2018-04-01T02:51:16.897Z,5.70
2018-04-01T02:53:45.029Z,5.70
2018-04-01T02:56:12.739Z,5.70
2018-04-01T02:58:41.178Z,5.70
2018-04-01T03:01:08.892Z,5.70
2018-04-01T03:03:37.106Z,5.60
2018-04-01T03:06:05.398Z,5.70
2018-04-01T03:08:33.102Z,5.80
2018-04-01T03:11:00.879Z,6.00
2018-04-01T03:13:28.593Z,6.10
2018-04-01T03:15:57.197Z,6.20
2018-04-01T03:18:25.535Z,6.30
2018-04-01T03:20:53.818Z,6.30
2018-04-01T03:23:21.516Z,6.50
2018-04-01T03:25:49.994Z,6.50
2018-04-01T03:28:18.565Z,6.50
2018-04-01T03:30:46.287Z,6.70
2018-04-01T03:33:13.994Z,6.70
2018-04-01T03:35:41.722Z,6.80
2018-04-01T03:38:10.933Z,6.80
2018-04-01T03:40:38.654Z,6.80
2018-04-01T03:43:06.373Z,6.90
2018-04-01T03:45:34.428Z,6.90
2018-04-01T03:48:02.889Z,7.10
2018-04-01T03:50:31.681Z,7.20
2018-04-01T03:52:59.385Z,7.20
2018-04-01T03:55:27.450Z,7.20
2018-04-01T03:57:55.161Z,7.20
2018-04-01T04:00:23.162Z,7.20
2018-04-01T04:02:50.940Z,7.20
2018-04-01T04:05:18.646Z,7.30
2018-04-01T04:07:46.610Z,7.30
2018-04-01T04:10:14.764Z,7.10
2018-04-01T04:12:42.473Z,7.10
2018-04-01T04:15:10.185Z,7.10
2018-04-01T04:17:37.909Z,7.10
2018-04-01T04:20:06.012Z,7.10
2018-04-01T04:22:34.915Z,7.20
2018-04-01T04:25:02.639Z,7.10
2018-04-01T04:27:30.342Z,7.20
2018-04-01T04:29:58.492Z,7.10
2018-04-01T04:32:26.210Z,7.20
2018-04-01T04:34:53.918Z,7.10
2018-04-01T04:37:22.405Z,7.20
2018-04-01T04:39:50.881Z,7.20
2018-04-01T04:42:19.359Z,7.30
2018-04-01T04:44:47.234Z,7.30
2018-04-01T04:47:15.712Z,7.30
2018-04-01T04:49:44.145Z,7.30
2018-04-01T04:52:11.863Z,7.30
2018-04-01T04:54:39.573Z,7.40
2018-04-01T04:57:07.445Z,7.40
2018-04-01T04:59:35.833Z,7.40
2018-04-01T05:02:03.961Z,7.50
2018-04-01T05:04:31.737Z,7.50
2018-04-01T05:06:59.845Z,7.50
2018-04-01T05:09:27.584Z,7.60
2018-04-01T05:11:55.437Z,7.60
2018-04-01T05:14:23.159Z,7.70
2018-04-01T05:16:50.880Z,7.60
2018-04-01T05:19:19.353Z,7.60
2018-04-01T05:21:47.140Z,7.60
2018-04-01T05:24:14.855Z,7.50
2018-04-01T05:26:42.577Z,7.50
2018-04-01T05:29:10.937Z,7.60
2018-04-01T05:31:38.637Z,7.70
2018-04-01T05:34:06.646Z,7.70
2018-04-01T05:36:35.009Z,7.70
2018-04-01T05:39:06.481Z,7.50
2018-04-01T05:41:34.208Z,7.60
2018-04-01T05:44:02.013Z,7.60
2018-04-01T05:46:30.078Z,7.60
2018-04-01T05:48:57.785Z,7.60
2018-04-01T05:51:25.504Z,7.60
2018-04-01T05:53:53.257Z,7.60
2018-04-01T05:56:20.969Z,7.60
2018-04-01T05:58:49.017Z,7.60
2018-04-01T06:01:16.731Z,7.70
2018-04-01T06:03:44.746Z,7.70
2018-04-01T06:06:13.122Z,7.70
2018-04-01T06:08:41.600Z,7.70
2018-04-01T06:11:11.017Z,7.70
2018-04-01T06:13:38.745Z,7.60
2018-04-01T06:16:06.461Z,7.60
2018-04-01T06:18:35.802Z,7.60
2018-04-01T06:21:03.913Z,7.60
2018-04-01T06:23:31.642Z,7.60
2018-04-01T06:25:59.349Z,7.50
2018-04-01T06:31:20.887Z,7.40
2018-04-01T06:33:48.621Z,7.30
2018-04-01T06:36:16.623Z,7.20
2018-04-01T06:38:44.344Z,7.20
2018-04-01T06:41:12.065Z,7.30
2018-04-01T06:43:40.021Z,7.30
2018-04-01T06:46:08.223Z,7.30
2018-04-01T06:48:37.538Z,7.30
2018-04-01T06:51:05.236Z,7.30
2018-04-01T06:53:32.966Z,7.40
2018-04-01T06:56:00.685Z,7.40
2018-04-01T06:58:29.930Z,7.40
2018-04-01T07:00:57.635Z,7.40
2018-04-01T07:03:25.337Z,7.50
2018-04-01T07:05:53.215Z,7.40
2018-04-01T07:08:21.005Z,7.40
2018-04-01T07:10:49.150Z,7.50
2018-04-01T07:13:16.926Z,7.50
2018-04-01T07:15:44.675Z,7.70
2018-04-01T07:18:12.934Z,7.60
2018-04-01T07:20:40.975Z,7.70
2018-04-01T07:23:08.967Z,7.80
2018-04-01T07:25:37.439Z,7.70
2018-04-01T07:28:05.137Z,7.70
2018-04-01T07:30:33.294Z,7.80
2018-04-01T07:33:01.017Z,7.90
2018-04-01T07:35:28.739Z,7.90
2018-04-01T07:37:56.486Z,8.00
2018-04-01T07:40:25.981Z,8.00
2018-04-01T07:42:54.532Z,8.00
2018-04-01T07:45:22.209Z,8.00
2018-04-01T07:47:49.953Z,8.20
2018-04-01T07:50:18.453Z,8.30
2018-04-01T07:52:47.969Z,8.20
2018-04-01T07:55:15.714Z,8.30
2018-04-01T07:57:43.418Z,8.30
2018-04-01T08:00:12.225Z,8.20
2018-04-01T08:02:39.934Z,8.20
2018-04-01T08:05:08.248Z,8.20
2018-04-01T08:07:36.520Z,8.40
2018-04-01T08:10:04.234Z,8.50
2018-04-01T08:12:32.349Z,8.50
2018-04-01T08:15:00.514Z,8.40
2018-04-01T08:17:28.831Z,8.40
2018-04-01T08:19:57.712Z,8.60
2018-04-01T08:22:25.577Z,8.60
2018-04-01T08:24:53.437Z,8.70
2018-04-01T08:27:21.270Z,8.70
2018-04-01T08:29:48.962Z,8.70
2018-04-01T08:32:16.758Z,8.70
2018-04-01T08:34:44.465Z,8.60
2018-04-01T08:37:18.821Z,8.50
2018-04-01T08:39:48.447Z,8.60
2018-04-01T08:42:16.163Z,8.70
2018-04-01T08:44:43.859Z,8.60
2018-04-01T08:47:11.582Z,8.60
2018-04-01T08:49:39.292Z,8.70
2018-04-01T08:52:07.764Z,8.90
2018-04-01T08:54:36.656Z,9.30
2018-04-01T08:57:18.075Z,9.60
2018-04-01T08:59:46.236Z,9.60
2018-04-01T09:02:13.948Z,10.20
2018-04-01T09:04:41.993Z,10.40
2018-04-01T09:07:09.961Z,10.30
2018-04-01T09:09:37.664Z,10.00
2018-04-01T09:12:05.369Z,9.80
2018-04-01T09:14:33.454Z,9.60
2018-04-01T09:17:01.324Z,9.50
2018-04-01T09:19:29.013Z,9.60
2018-04-01T09:21:57.088Z,9.60
2018-04-01T09:24:25.470Z,9.90
2018-04-01T09:26:53.226Z,10.40
2018-04-01T09:29:21.020Z,10.90
2018-04-01T09:31:48.865Z,10.90
2018-04-01T09:34:16.581Z,10.70
2018-04-01T09:36:45.220Z,10.70
2018-04-01T09:39:13.345Z,10.70
2018-04-01T09:41:41.054Z,10.30
2018-04-01T09:44:08.784Z,10.10
2018-04-01T09:46:36.858Z,10.10
2018-04-01T09:49:04.557Z,10.10
2018-04-01T09:51:33.778Z,10.00
2018-04-01T09:54:03.038Z,10.30
2018-04-01T09:56:30.742Z,10.30
2018-04-01T09:58:58.813Z,10.50
2018-04-01T10:01:27.389Z,10.90
2018-04-01T10:03:56.254Z,11.30
2018-04-01T10:06:24.774Z,11.50
2018-04-01T10:08:52.975Z,11.50
2018-04-01T10:11:21.858Z,11.70
2018-04-01T10:13:50.816Z,11.00
2018-04-01T10:16:19.541Z,11.00
2018-04-01T10:18:48.509Z,9.90
2018-04-01T10:21:17.098Z,9.90
2018-04-01T10:23:45.784Z,9.80
2018-04-01T10:26:14.037Z,9.70
2018-04-01T10:28:42.234Z,9.80
2018-04-01T10:31:10.985Z,9.70
2018-04-01T10:33:39.714Z,8.90
2018-04-01T10:36:07.928Z,8.30
2018-04-01T10:38:36.458Z,7.80
2018-04-01T10:41:04.649Z,7.50
2018-04-01T10:43:32.844Z,7.40
2018-04-01T10:46:01.826Z,7.40
2018-04-01T10:48:30.794Z,7.30
2018-04-01T10:50:59.001Z,7.30
2018-04-01T10:53:27.393Z,7.10
2018-04-01T10:55:56.354Z,7.00
2018-04-01T10:58:24.085Z,7.00
2018-04-01T11:00:52.298Z,7.10
2018-04-01T11:03:20.001Z,7.30
2018-04-01T11:05:48.055Z,7.50
2018-04-01T11:08:15.917Z,7.70
2018-04-01T11:10:43.765Z,8.00
2018-04-01T11:13:12.281Z,8.30
2018-04-01T11:15:39.994Z,8.90
2018-04-01T11:18:08.229Z,9.50
2018-04-01T11:20:36.369Z,9.60
2018-04-01T11:23:04.332Z,9.70
2018-04-01T11:25:32.113Z,10.00
2018-04-01T11:28:00.583Z,9.70
2018-04-01T11:30:28.997Z,9.70
2018-04-01T11:32:57.055Z,9.90
2018-04-01T11:35:24.757Z,9.80
2018-04-01T11:37:52.460Z,9.70
2018-04-01T11:40:20.878Z,9.60
2018-04-01T11:42:48.674Z,9.60
2018-04-01T11:45:16.405Z,9.50
2018-04-01T11:47:44.168Z,9.50
2018-04-01T11:50:11.916Z,9.60
2018-04-01T11:52:41.977Z,9.60
2018-04-01T11:55:10.228Z,9.60
2018-04-01T11:57:37.929Z,9.70
2018-04-01T12:00:06.151Z,9.60
2018-04-01T12:02:34.227Z,9.70
2018-04-01T12:05:01.929Z,10.00
2018-04-01T12:07:29.842Z,10.40
2018-04-01T12:09:57.553Z,10.70
2018-04-01T12:12:26.159Z,10.50
2018-04-01T12:14:53.836Z,10.20
2018-04-01T12:17:22.049Z,10.10
2018-04-01T12:19:50.827Z,10.10
2018-04-01T12:22:19.437Z,10.00
2018-04-01T12:24:47.621Z,10.00
2018-04-01T12:27:15.409Z,9.90
2018-04-01T12:29:43.724Z,9.50
2018-04-01T12:32:11.533Z,9.20
2018-04-01T12:34:39.247Z,8.90
2018-04-01T12:37:06.949Z,8.40
2018-04-01T12:39:35.126Z,8.00
2018-04-01T12:42:02.843Z,7.60
2018-04-01T12:44:30.532Z,7.10
2018-04-01T12:46:59.220Z,7.30
2018-04-01T12:49:27.704Z,7.40
2018-04-01T12:51:56.193Z,7.70
2018-04-01T12:54:24.289Z,7.70
2018-04-01T12:56:51.985Z,8.10
2018-04-01T12:59:20.298Z,8.60
2018-04-01T13:01:48.900Z,9.50
2018-04-01T13:04:16.553Z,9.40
2018-04-01T13:06:44.727Z,9.80
2018-04-01T13:09:13.193Z,10.40
2018-04-01T13:11:41.679Z,10.80
2018-04-01T13:14:10.476Z,10.50
2018-04-01T13:16:39.465Z,10.30
2018-04-01T13:19:08.017Z,10.20
2018-04-01T13:21:36.358Z,10.20
2018-04-01T13:24:04.169Z,10.20
2018-04-01T13:26:32.274Z,9.90
2018-04-01T13:28:59.995Z,9.70
2018-04-01T13:31:28.105Z,9.40
2018-04-01T13:33:56.605Z,9.20
2018-04-01T13:36:24.334Z,9.10
2018-04-01T13:38:52.065Z,8.80
2018-04-01T13:41:20.077Z,8.60
2018-04-01T13:43:47.777Z,8.70
2018-04-01T13:46:15.481Z,8.60
2018-04-01T13:48:43.212Z,8.70
2018-04-01T13:51:10.914Z,9.00
2018-04-01T13:53:39.237Z,9.20
2018-04-01T13:56:06.351Z,9.10
2018-04-01T13:58:53.685Z,8.90
2018-04-01T14:01:21.829Z,8.60
2018-04-01T14:03:49.532Z,7.90
2018-04-01T14:06:18.122Z,7.70
2018-04-01T14:08:46.603Z,7.70
2018-04-01T14:11:15.061Z,7.60
2018-04-01T14:13:43.236Z,7.50
2018-04-01T14:16:17.657Z,7.60
2018-04-01T14:18:45.364Z,7.50
2018-04-01T14:21:13.841Z,7.50
2018-04-01T14:23:42.230Z,7.70
2018-04-01T14:26:10.140Z,7.70
2018-04-01T14:28:37.825Z,7.70
2018-04-01T14:31:06.288Z,7.80
2018-04-01T14:33:33.994Z,7.80
2018-04-01T14:36:02.462Z,7.70
2018-04-01T14:38:31.126Z,7.70
2018-04-01T14:40:59.436Z,7.70
2018-04-01T14:43:27.149Z,7.70
2018-04-01T14:45:55.211Z,7.90
2018-04-01T14:48:22.903Z,7.90
2018-04-01T14:50:50.602Z,7.90
2018-04-01T14:53:19.081Z,8.30
2018-04-01T14:55:47.582Z,8.30
2018-04-01T14:58:15.293Z,8.30
2018-04-01T15:00:44.569Z,8.60
2018-04-01T15:03:12.283Z,9.00
2018-04-01T15:05:42.272Z,8.90
2018-04-01T15:08:10.201Z,8.90
2018-04-01T15:10:37.906Z,8.70
2018-04-01T15:13:05.946Z,8.70
2018-04-01T15:15:33.645Z,8.60
2018-04-01T15:18:01.765Z,8.40
2018-04-01T15:20:30.145Z,8.50
2018-04-01T15:22:57.925Z,8.50
2018-04-01T15:25:26.796Z,8.60
2018-04-01T15:27:54.522Z,8.50
2018-04-01T15:30:22.543Z,8.50
2018-04-01T15:32:50.561Z,8.50
2018-04-01T15:35:18.875Z,8.60
2018-04-01T15:37:47.354Z,8.40
2018-04-01T15:40:15.057Z,8.40
2018-04-01T15:42:42.778Z,8.20
2018-04-01T15:45:11.265Z,8.00
2018-04-01T15:47:39.737Z,7.90
2018-04-01T15:50:08.234Z,7.80
2018-04-01T15:52:35.942Z,7.80
2018-04-01T15:55:03.734Z,7.70
2018-04-01T15:57:31.848Z,7.60
2018-04-01T15:59:59.876Z,7.40
2018-04-01T16:02:27.581Z,7.30
2018-04-01T16:04:55.286Z,7.10
2018-04-01T16:07:24.334Z,6.90
2018-04-01T16:09:52.801Z,7.00
2018-04-01T16:12:25.373Z,7.10
2018-04-01T16:14:53.905Z,7.00
2018-04-01T16:17:21.874Z,7.00
2018-04-01T16:19:52.737Z,6.90
2018-04-01T16:22:20.663Z,6.80
2018-04-01T16:24:48.369Z,6.80
2018-04-01T16:27:16.082Z,6.80
2018-04-01T16:29:44.177Z,6.80
2018-04-01T16:32:12.158Z,6.80
2018-04-01T16:34:39.863Z,6.80
2018-04-01T16:37:07.612Z,6.90
2018-04-01T16:39:35.435Z,6.90
2018-04-01T16:42:03.154Z,7.00
2018-04-01T16:44:30.871Z,7.10
2018-04-01T16:46:58.755Z,7.00
2018-04-01T16:49:26.466Z,7.10
2018-04-01T16:51:54.949Z,7.20
2018-04-01T16:54:23.701Z,7.20
2018-04-01T16:56:51.430Z,7.20
2018-04-01T16:59:19.880Z,7.10
2018-04-01T17:01:48.163Z,7.10
2018-04-01T17:04:16.246Z,7.10
2018-04-01T17:06:44.929Z,7.10
2018-04-01T17:09:13.418Z,7.10
2018-04-01T17:11:41.134Z,7.20
2018-04-01T17:14:09.552Z,7.20
2018-04-01T17:16:38.708Z,7.20
2018-04-01T17:19:06.427Z,7.20
2018-04-01T17:21:34.650Z,7.20
2018-04-01T17:24:02.360Z,7.20
2018-04-01T17:26:30.067Z,7.20
2018-04-01T17:28:57.782Z,7.20
2018-04-01T17:31:26.457Z,7.20
2018-04-01T17:33:55.258Z,7.30
2018-04-01T17:36:23.017Z,7.30
2018-04-01T17:38:50.713Z,7.30
2018-04-01T17:41:18.494Z,7.20
2018-04-01T17:43:46.914Z,7.20
2018-04-01T17:46:14.625Z,7.20
2018-04-01T17:48:43.853Z,7.00
2018-04-01T17:51:11.574Z,7.00
2018-04-01T17:53:39.284Z,7.10
2018-04-01T17:56:08.130Z,7.00
2018-04-01T17:58:35.855Z,7.00
2018-04-01T18:01:03.958Z,7.00
2018-04-01T18:03:31.658Z,6.90
2018-04-01T18:05:59.373Z,6.80
2018-04-01T18:08:28.434Z,6.60
2018-04-01T18:10:56.117Z,6.60
2018-04-01T18:13:24.988Z,6.50
2018-04-01T18:15:52.820Z,6.50
2018-04-01T18:18:21.435Z,6.40
2018-04-01T18:20:49.313Z,6.50
2018-04-01T18:23:17.697Z,6.60
2018-04-01T18:25:45.422Z,6.60
2018-04-01T18:28:13.126Z,6.60
2018-04-01T18:30:43.581Z,6.70
2018-04-01T18:33:12.061Z,6.60
2018-04-01T18:35:40.840Z,6.60
2018-04-01T18:38:09.321Z,6.70
2018-04-01T18:40:37.795Z,6.70
2018-04-01T18:43:05.530Z,6.70
2018-04-01T18:45:33.229Z,6.70
2018-04-01T18:48:00.946Z,6.60
2018-04-01T18:50:28.877Z,6.50
2018-04-01T18:52:57.362Z,6.40
2018-04-01T18:55:25.849Z,6.50
2018-04-01T18:57:53.609Z,6.50
2018-04-01T19:00:22.095Z,6.50
2018-04-01T19:02:50.973Z,6.60
2018-04-01T19:05:18.675Z,6.60
2018-04-01T19:07:46.925Z,6.70
2018-04-01T19:10:16.025Z,6.70
2018-04-01T19:12:44.185Z,6.60
2018-04-01T19:15:12.661Z,6.70
2018-04-01T19:17:42.586Z,6.50
2018-04-01T19:20:18.305Z,6.70
2018-04-01T19:22:47.289Z,6.60
2018-04-01T19:25:15.792Z,6.70
2018-04-01T19:27:44.273Z,6.70
2018-04-01T19:30:13.132Z,6.70
2018-04-01T19:32:41.908Z,6.60
2018-04-01T19:35:10.113Z,6.60
2018-04-01T19:37:39.272Z,6.50
2018-04-01T19:40:07.598Z,6.50
2018-04-01T19:42:35.712Z,6.60
2018-04-01T19:45:03.906Z,6.70
2018-04-01T19:47:32.142Z,6.70
2018-04-01T19:50:01.117Z,6.70
2018-04-01T19:52:29.334Z,6.70
2018-04-01T19:54:58.613Z,6.80
2018-04-01T19:57:27.580Z,6.70
2018-04-01T19:59:57.234Z,6.70
2018-04-01T20:02:26.203Z,6.70
2018-04-01T20:04:54.417Z,6.70
2018-04-01T20:07:23.160Z,6.70
2018-04-01T20:09:52.124Z,6.70
2018-04-01T20:12:25.379Z,6.70
2018-04-01T20:14:54.346Z,6.70
2018-04-01T20:17:23.149Z,6.70
2018-04-01T20:19:53.794Z,6.60
2018-04-01T20:22:22.364Z,6.60
2018-04-01T20:24:51.462Z,6.60
2018-04-01T20:27:20.420Z,6.60
2018-04-01T20:29:48.629Z,6.60
2018-04-01T20:32:17.134Z,6.70
2018-04-01T20:34:45.340Z,6.70
2018-04-01T20:37:13.541Z,6.80
2018-04-01T20:39:41.758Z,6.80
2018-04-01T20:42:10.718Z,6.90
2018-04-01T20:44:38.932Z,6.90
2018-04-01T20:47:07.397Z,6.90
2018-04-01T20:49:36.358Z,6.70
2018-04-01T20:52:09.709Z,6.70
2018-04-01T20:54:37.947Z,6.70
2018-04-01T20:57:06.119Z,6.70
2018-04-01T20:59:34.505Z,6.60
2018-04-01T21:02:03.789Z,6.50
2018-04-01T21:04:32.003Z,6.50
2018-04-01T21:07:00.785Z,6.60
2018-04-01T21:09:30.289Z,6.40
2018-04-01T21:11:59.246Z,6.40
2018-04-01T21:14:27.964Z,6.40
2018-04-01T21:16:56.625Z,6.40
2018-04-01T21:19:24.830Z,6.50
2018-04-01T21:21:54.122Z,6.50
2018-04-01T21:24:22.325Z,6.50
2018-04-01T21:26:51.430Z,6.50
2018-04-01T21:29:19.653Z,6.50
2018-04-01T21:31:48.254Z,6.40
2018-04-01T21:34:17.722Z,6.40
2018-04-01T21:36:45.929Z,6.40
2018-04-01T21:39:14.537Z,6.30
2018-04-01T21:41:43.515Z,6.40
2018-04-01T21:44:12.489Z,6.20
2018-04-01T21:46:40.699Z,6.20
2018-04-01T21:49:09.681Z,6.40
2018-04-01T21:51:38.797Z,6.50
2018-04-01T21:54:07.756Z,6.60
2018-04-01T21:56:35.961Z,6.60
2018-04-01T21:59:05.657Z,6.70
2018-04-01T22:01:34.766Z,6.90
2018-04-01T22:04:03.749Z,6.90
2018-04-01T22:06:32.953Z,6.90
2018-04-01T22:09:01.938Z,6.70
2018-04-01T22:11:30.333Z,6.70
2018-04-01T22:13:58.610Z,6.70
2018-04-01T22:16:27.421Z,6.80
2018-04-01T22:18:55.625Z,6.70
2018-04-01T22:21:24.509Z,6.70
2018-04-01T22:23:59.330Z,6.60
2018-04-01T22:26:27.533Z,6.50
2018-04-01T22:28:55.754Z,6.50
2018-04-01T22:31:24.593Z,6.50
2018-04-01T22:33:52.804Z,6.50
2018-04-01T22:36:21.013Z,6.40
2018-04-01T22:38:50.589Z,6.50
2018-04-01T22:41:19.572Z,6.60
2018-04-01T22:43:47.781Z,6.50
2018-04-01T22:46:16.012Z,6.60
2018-04-01T22:48:44.219Z,6.60
2018-04-01T22:51:13.192Z,6.60
2018-04-01T22:53:42.173Z,6.40
2018-04-01T22:56:10.381Z,6.40
2018-04-01T22:58:38.620Z,6.40
2018-04-01T23:01:07.389Z,6.50
2018-04-01T23:03:35.904Z,6.50
2018-04-01T23:06:10.632Z,6.40
2018-04-01T23:08:39.061Z,6.50
2018-04-01T23:11:07.585Z,6.50
2018-04-01T23:13:36.105Z,6.50
2018-04-01T23:16:04.318Z,6.50
2018-04-01T23:18:32.948Z,6.60
2018-04-01T23:21:02.474Z,6.70
2018-04-01T23:23:31.389Z,6.70
2018-04-01T23:25:59.595Z,6.60
2018-04-01T23:28:27.819Z,6.50
2018-04-01T23:30:56.338Z,6.60
2018-04-01T23:33:24.542Z,6.60
2018-04-01T23:35:52.974Z,6.60
2018-04-01T23:38:21.197Z,6.60
2018-04-01T23:40:50.132Z,6.50
2018-04-01T23:43:18.369Z,6.60
2018-04-01T23:45:46.590Z,6.70
2018-04-01T23:48:14.813Z,6.80
2018-04-01T23:50:43.045Z,6.80
2018-04-01T23:53:11.254Z,6.90
2018-04-01T23:55:39.485Z,6.80
2018-04-01T23:58:09.364Z,6.80
